Home   Weather   Cyprus   Limassol   Past weeks
Flag for Cyprus

Past Weather in Limassol, Cyprus — Yesterday and Last 2 Weeks

Currently: 66 °F. Sunny. (Weather station: Akrotiri, Cyprus). See more current weather

Past Weather in Limassol — Graph

°F

Limassol Temperature Yesterday

Maximum temperature yesterday: 79 °F (at 1:20 pm)
Minimum temperature yesterday: 57 °F (at 3:50 am)
Average temperature yesterday: 69 °F

High & Low Weather Summary for the Past Weeks

  Temperature Humidity Pressure
High 79 °F (Apr 26, 1:50 pm) 94% (Apr 25, 6:20 am) 30.09 "Hg (Apr 25, 6:20 am)
Low 50 °F (May 6, 5:50 am) 28% (May 8, 5:20 pm) 29.68 "Hg (May 3, 4:50 am)
Average 65 °F 70% 29.89 "Hg
* Reported Apr 24 5:20 am — May 9 5:50 am, Limassol. Weather by CustomWeather, © 2026

Note: Actual official high and low records may vary slightly from our data, if they occured in-between our weather recording intervals... More about our weather records

Limassol Weather History for the Previous 24 Hours

Scroll right to see more
  Conditions Comfort    
Time   Temp Weather Wind   Humidity Barometer Visibility
5:50 am
Sat, May 9
63 °F Sunny. 5 mph 52% 29.98 "Hg 10 mi
4:50 am 61 °F Clear. 2 mph 59% 29.98 "Hg 10 mi
3:50 am 63 °F Clear. 3 mph 59% 29.98 "Hg 10 mi
2:50 am 64 °F Clear. 2 mph 60% 29.98 "Hg 10 mi
1:50 am 66 °F Clear. 3 mph 56% 30.01 "Hg 10 mi
12:50 am 66 °F Clear. 5 mph 60% 30.01 "Hg 10 mi
11:50 pm
Fri, May 8
68 °F Clear. 5 mph 53% 30.04 "Hg 10 mi
11:20 pm 68 °F Clear. 5 mph 60% 30.04 "Hg 10 mi
10:50 pm 66 °F Clear. 2 mph 73% 30.04 "Hg 10 mi
10:20 pm 68 °F Clear. 2 mph 73% 30.04 "Hg 10 mi
9:50 pm 68 °F Clear. 2 mph 73% 30.04 "Hg 10 mi
9:20 pm 68 °F Clear. 3 mph 78% 30.01 "Hg 10 mi
8:50 pm 68 °F Clear. 6 mph 83% 30.01 "Hg 10 mi
8:20 pm 68 °F Clear. 7 mph 83% 30.01 "Hg 10 mi
7:50 pm 70 °F Clear. 8 mph 69% 30.01 "Hg 10 mi
7:20 pm 70 °F Sunny. 9 mph 69% 30.01 "Hg 10 mi
6:50 pm 72 °F Sunny. 10 mph 50% 30.01 "Hg 10 mi
6:20 pm 73 °F Sunny. 13 mph 36% 30.01 "Hg 10 mi
5:50 pm 77 °F Sunny. 12 mph 30% 30.01 "Hg 10 mi
5:20 pm 77 °F Sunny. 12 mph 28% 30.01 "Hg 10 mi
4:50 pm 77 °F Sunny. 13 mph 32% 30.01 "Hg 10 mi
4:20 pm 77 °F Sunny. 10 mph 34% 30.01 "Hg 10 mi
3:50 pm 77 °F Scattered clouds. 10 mph 36% 30.04 "Hg N/A
3:20 pm 79 °F Scattered clouds. 8 mph 37% 30.04 "Hg N/A
2:50 pm 77 °F Passing clouds. 8 mph 39% 30.04 "Hg N/A
2:20 pm 79 °F Sunny. 7 mph 32% 30.04 "Hg 10 mi
1:50 pm 77 °F Scattered clouds. 8 mph 42% 30.04 "Hg N/A
1:20 pm 79 °F Sunny. 8 mph 32% 30.04 "Hg 10 mi
12:50 pm 77 °F Sunny. 7 mph 34% 30.04 "Hg 10 mi
12:20 pm 77 °F Sunny. 7 mph 34% 30.04 "Hg 10 mi
11:50 am 75 °F Sunny. 7 mph 44% 30.04 "Hg 10 mi
11:20 am 75 °F Sunny. 8 mph 47% 30.07 "Hg 10 mi
10:50 am 73 °F Sunny. 8 mph 47% 30.07 "Hg 10 mi
10:20 am 73 °F Sunny. 7 mph 47% 30.07 "Hg 10 mi
9:50 am 73 °F Sunny. 3 mph 47% 30.07 "Hg 10 mi
9:20 am 72 °F Sunny. 6 mph 50% 30.07 "Hg 10 mi
8:50 am 70 °F Sunny. 3 mph 57% 30.07 "Hg 10 mi
8:20 am 68 °F Sunny. 1 mph 69% 30.07 "Hg 10 mi
7:50 am 68 °F Sunny. 2 mph 64% 30.07 "Hg 10 mi
7:20 am 63 °F Sunny. 2 mph 68% 30.07 "Hg 10 mi
Weather by CustomWeather, © 2026

See weather overview